createdAt,value
2017-09-19T00:00:58.729Z,22.50
2017-09-19T00:03:26.122Z,23.07
2017-09-19T00:05:53.514Z,22.57
2017-09-19T00:08:20.915Z,25.40
2017-09-19T00:10:48.306Z,22.47
2017-09-19T00:13:15.810Z,25.80
2017-09-19T00:15:43.201Z,24.97
2017-09-19T00:18:10.599Z,26.87
2017-09-19T00:20:37.998Z,25.47
2017-09-19T00:23:05.390Z,25.17
2017-09-19T00:25:32.805Z,28.00
2017-09-19T00:28:00.183Z,26.60
2017-09-19T00:30:27.583Z,28.00
2017-09-19T00:32:54.983Z,28.97
2017-09-19T00:35:22.378Z,26.90
2017-09-19T00:37:49.926Z,27.37
2017-09-19T00:40:17.312Z,30.13
2017-09-19T00:42:44.714Z,27.63
2017-09-19T00:45:12.105Z,29.03
2017-09-19T00:47:39.506Z,29.37
2017-09-19T00:50:07.453Z,28.80
2017-09-19T00:52:34.824Z,29.00
2017-09-19T00:55:02.219Z,27.80
2017-09-19T00:57:29.619Z,28.97
2017-09-19T00:59:57.007Z,30.63
2017-09-19T01:02:24.434Z,28.47
2017-09-19T01:04:51.839Z,28.83
2017-09-19T01:07:19.230Z,29.70
2017-09-19T01:09:46.639Z,28.40
2017-09-19T01:12:14.039Z,29.23
2017-09-19T01:14:41.582Z,28.23
2017-09-19T01:17:08.973Z,28.00
2017-09-19T01:19:36.377Z,29.10
2017-09-19T01:22:03.782Z,28.80
2017-09-19T01:24:31.187Z,29.50
2017-09-19T01:26:58.730Z,28.30
2017-09-19T01:29:26.126Z,28.97
2017-09-19T01:31:53.518Z,26.80
2017-09-19T01:34:20.927Z,27.40
2017-09-19T01:36:48.322Z,26.93
2017-09-19T01:39:15.746Z,28.80
2017-09-19T01:41:43.159Z,27.90
2017-09-19T01:44:10.545Z,29.53
2017-09-19T01:46:37.950Z,28.33
2017-09-19T01:49:05.346Z,28.20
2017-09-19T01:51:32.785Z,28.70
2017-09-19T01:54:00.181Z,28.00
2017-09-19T01:56:27.586Z,28.37
2017-09-19T01:58:54.988Z,27.90
2017-09-19T02:01:22.383Z,28.10
2017-09-19T02:03:49.787Z,30.00
2017-09-19T02:06:17.188Z,27.13
2017-09-19T02:08:44.587Z,28.60
2017-09-19T02:11:11.989Z,27.67
2017-09-19T02:13:39.374Z,28.57
2017-09-19T02:16:06.770Z,27.10
2017-09-19T02:18:34.166Z,27.50
2017-09-19T02:21:01.563Z,25.80
2017-09-19T02:23:28.954Z,28.50
2017-09-19T02:25:56.510Z,28.60
2017-09-19T02:28:23.902Z,29.40
2017-09-19T02:30:51.295Z,27.60
2017-09-19T02:33:18.833Z,28.30
2017-09-19T02:35:46.229Z,27.77
2017-09-19T02:38:13.619Z,28.57
2017-09-19T02:40:41.173Z,27.57
2017-09-19T02:43:08.559Z,28.80
2017-09-19T02:45:35.954Z,29.40
2017-09-19T02:48:03.498Z,28.90
2017-09-19T02:50:30.894Z,29.20
2017-09-19T02:52:58.291Z,28.20
2017-09-19T02:55:25.697Z,28.47
2017-09-19T02:57:53.085Z,27.90
2017-09-19T03:00:20.478Z,27.43
2017-09-19T03:02:47.906Z,27.20
2017-09-19T03:05:15.301Z,26.53
2017-09-19T03:07:42.698Z,24.13
2017-09-19T03:10:10.106Z,25.10
2017-09-19T03:12:37.508Z,25.57
2017-09-19T03:15:04.943Z,25.93
2017-09-19T03:17:32.333Z,25.30
2017-09-19T03:19:59.728Z,24.93
2017-09-19T03:22:27.127Z,24.10
2017-09-19T03:24:54.522Z,23.77
2017-09-19T03:27:22.026Z,24.50
2017-09-19T03:29:49.418Z,25.23
2017-09-19T03:32:16.806Z,24.33
2017-09-19T03:34:44.205Z,23.40
2017-09-19T03:37:11.608Z,24.97
2017-09-19T03:39:39.046Z,23.23
2017-09-19T03:42:06.437Z,23.67
2017-09-19T03:44:33.834Z,23.60
2017-09-19T03:47:01.226Z,22.57
2017-09-19T03:49:28.619Z,23.80
2017-09-19T03:51:56.039Z,22.60
2017-09-19T03:54:23.426Z,24.50
2017-09-19T03:56:50.822Z,24.30
2017-09-19T03:59:18.674Z,21.87
2017-09-19T04:01:46.070Z,21.93
2017-09-19T04:04:13.478Z,23.10
2017-09-19T04:06:40.866Z,24.30
2017-09-19T04:09:08.265Z,23.70
2017-09-19T04:11:35.663Z,21.93
2017-09-19T04:14:03.054Z,23.70
2017-09-19T04:16:30.582Z,23.60
2017-09-19T04:18:57.979Z,25.00
2017-09-19T04:21:25.386Z,24.60
2017-09-19T04:23:52.778Z,24.83
2017-09-19T04:26:20.174Z,24.07
2017-09-19T04:28:47.717Z,22.53
2017-09-19T04:31:15.123Z,23.30
2017-09-19T04:33:42.523Z,24.90
2017-09-19T04:36:09.922Z,25.10
2017-09-19T04:38:37.319Z,24.97
2017-09-19T04:41:04.751Z,26.60
2017-09-19T04:43:32.142Z,25.30
2017-09-19T04:45:59.538Z,26.97
2017-09-19T04:48:26.945Z,26.10
2017-09-19T04:50:54.353Z,25.20
2017-09-19T04:53:21.921Z,26.20
2017-09-19T04:55:49.306Z,28.20
2017-09-19T04:58:16.702Z,28.80
2017-09-19T05:00:44.117Z,28.27
2017-09-19T05:03:11.514Z,30.57
2017-09-19T05:05:38.917Z,31.93
2017-09-19T05:08:06.312Z,31.53
2017-09-19T05:10:33.862Z,32.23
2017-09-19T05:13:01.354Z,32.30
2017-09-19T05:15:28.747Z,31.97
2017-09-19T05:17:56.142Z,32.00
2017-09-19T05:20:23.542Z,30.20
2017-09-19T05:22:50.941Z,31.17
2017-09-19T05:25:18.338Z,27.43
2017-09-19T05:27:45.729Z,30.93
2017-09-19T05:30:13.137Z,31.00
2017-09-19T05:32:40.531Z,31.20
2017-09-19T05:35:08.075Z,29.53
2017-09-19T05:37:35.473Z,30.23
2017-09-19T05:40:02.869Z,32.00
2017-09-19T05:42:30.263Z,27.63
2017-09-19T05:44:57.675Z,30.97
2017-09-19T05:47:25.234Z,29.60
2017-09-19T05:49:52.636Z,29.80
2017-09-19T05:52:20.023Z,28.67
2017-09-19T05:54:47.444Z,28.17
2017-09-19T05:57:14.842Z,29.00
2017-09-19T05:59:42.349Z,27.10
2017-09-19T06:02:09.743Z,28.50
2017-09-19T06:04:37.134Z,30.27
2017-09-19T06:07:04.556Z,28.57
2017-09-19T06:09:38.649Z,26.67
2017-09-19T06:12:06.100Z,26.00
2017-09-19T06:14:33.490Z,26.80
2017-09-19T06:17:00.882Z,28.03
2017-09-19T06:19:28.286Z,27.20
2017-09-19T06:21:55.697Z,28.00
2017-09-19T06:24:23.570Z,28.90
2017-09-19T06:26:50.967Z,30.17
2017-09-19T06:29:18.362Z,28.50
2017-09-19T06:31:45.762Z,28.30
2017-09-19T06:34:13.153Z,26.27
2017-09-19T06:36:40.658Z,27.47
2017-09-19T06:39:08.046Z,27.33
2017-09-19T06:41:35.442Z,27.40
2017-09-19T06:44:02.843Z,27.40
2017-09-19T06:46:30.234Z,28.50
2017-09-19T06:48:57.737Z,28.60
2017-09-19T06:51:25.128Z,28.83
2017-09-19T06:53:52.518Z,26.73
2017-09-19T06:56:19.923Z,28.23
2017-09-19T06:58:47.318Z,27.57
2017-09-19T07:01:14.833Z,28.90
2017-09-19T07:03:42.218Z,29.93
2017-09-19T07:06:09.611Z,30.17
2017-09-19T07:08:37.023Z,29.10
2017-09-19T07:11:04.407Z,30.93
2017-09-19T07:13:31.840Z,31.00
2017-09-19T07:15:59.227Z,32.07
2017-09-19T07:18:26.622Z,30.27
2017-09-19T07:20:54.028Z,29.77
2017-09-19T07:23:21.417Z,31.20
2017-09-19T07:25:48.849Z,28.40
2017-09-19T07:28:16.256Z,31.00
2017-09-19T07:30:43.646Z,31.07
2017-09-19T07:33:11.045Z,30.87
2017-09-19T07:35:38.435Z,29.63
2017-09-19T07:38:05.850Z,29.30
2017-09-19T07:40:33.246Z,30.90
2017-09-19T07:43:00.638Z,30.60
2017-09-19T07:45:28.041Z,29.90
2017-09-19T07:47:55.430Z,31.83
2017-09-19T07:50:22.846Z,30.93
2017-09-19T07:52:50.238Z,32.37
2017-09-19T07:55:17.625Z,28.63
2017-09-19T07:57:45.031Z,27.60
2017-09-19T08:00:12.422Z,28.40
2017-09-19T08:02:40.127Z,30.30
2017-09-19T08:05:07.516Z,33.67
2017-09-19T08:07:34.913Z,31.87
2017-09-19T08:10:02.307Z,32.90
2017-09-19T08:12:29.697Z,35.17
2017-09-19T08:14:57.246Z,34.60
2017-09-19T08:17:24.642Z,34.13
2017-09-19T08:19:52.038Z,36.20
2017-09-19T08:22:19.434Z,35.20
2017-09-19T08:24:46.830Z,35.70
2017-09-19T08:27:14.379Z,36.77
2017-09-19T08:29:41.770Z,35.13
2017-09-19T08:32:09.166Z,35.40
2017-09-19T08:34:36.562Z,32.13
2017-09-19T08:37:03.967Z,34.93
2017-09-19T08:39:31.521Z,32.90
2017-09-19T08:41:58.910Z,32.23
2017-09-19T08:44:26.303Z,31.40
2017-09-19T08:46:53.702Z,29.97
2017-09-19T08:49:21.098Z,29.33
2017-09-19T08:51:48.521Z,31.13
2017-09-19T08:54:15.925Z,28.10
2017-09-19T08:56:43.322Z,28.20
2017-09-19T08:59:10.724Z,27.60
2017-09-19T09:01:38.119Z,26.20
2017-09-19T09:04:05.614Z,26.70
2017-09-19T09:06:33.023Z,26.87
2017-09-19T09:09:00.415Z,28.13
2017-09-19T09:11:27.809Z,27.70
2017-09-19T09:13:55.202Z,25.67
2017-09-19T09:16:23.028Z,26.37
2017-09-19T09:18:50.414Z,27.30
2017-09-19T09:21:17.815Z,26.80
2017-09-19T09:23:45.222Z,25.97
2017-09-19T09:26:12.610Z,27.27
2017-09-19T09:28:40.165Z,25.90
2017-09-19T09:31:07.562Z,22.67
2017-09-19T09:33:34.954Z,22.37
2017-09-19T09:36:02.350Z,18.40
2017-09-19T09:38:29.759Z,18.60
2017-09-19T09:40:57.301Z,20.33
2017-09-19T09:43:24.690Z,21.53
2017-09-19T09:45:52.078Z,21.03
2017-09-19T09:48:19.490Z,22.70
2017-09-19T09:50:46.877Z,21.30
2017-09-19T09:53:14.422Z,21.07
2017-09-19T09:55:41.824Z,20.80
2017-09-19T09:58:09.214Z,19.53
2017-09-19T10:00:36.616Z,19.90
2017-09-19T10:03:04.009Z,21.47
2017-09-19T10:05:31.510Z,20.73
2017-09-19T10:07:58.902Z,22.57
2017-09-19T10:10:26.306Z,23.97
2017-09-19T10:12:53.687Z,22.30
2017-09-19T10:15:21.082Z,21.60
2017-09-19T10:17:48.503Z,21.77
2017-09-19T10:20:15.894Z,23.77
2017-09-19T10:22:43.285Z,23.50
2017-09-19T10:25:10.682Z,21.90
2017-09-19T10:27:38.075Z,21.03
2017-09-19T10:30:05.578Z,22.70
2017-09-19T10:32:32.975Z,21.70
2017-09-19T10:35:00.390Z,20.80
2017-09-19T10:37:27.780Z,22.00
2017-09-19T10:39:55.174Z,23.77
2017-09-19T10:42:23.010Z,22.23
2017-09-19T10:44:50.403Z,23.07
2017-09-19T10:47:17.794Z,24.10
2017-09-19T10:49:45.195Z,21.17
2017-09-19T10:52:12.597Z,23.57
2017-09-19T10:54:40.301Z,23.80
2017-09-19T10:57:07.699Z,23.90
2017-09-19T10:59:35.102Z,24.10
2017-09-19T11:02:02.497Z,23.67
2017-09-19T11:04:29.895Z,24.20
2017-09-19T11:06:57.322Z,23.00
2017-09-19T11:09:24.722Z,22.37
2017-09-19T11:11:52.110Z,20.77
2017-09-19T11:14:19.514Z,21.40
2017-09-19T11:16:46.913Z,22.70
2017-09-19T11:19:14.317Z,22.27
2017-09-19T11:21:41.710Z,23.57
2017-09-19T11:24:09.107Z,23.07
2017-09-19T11:26:36.497Z,25.63
2017-09-19T11:29:03.893Z,24.10
2017-09-19T11:31:31.395Z,22.90
2017-09-19T11:33:58.799Z,24.70
2017-09-19T11:36:26.186Z,23.80
2017-09-19T11:38:53.595Z,22.70
2017-09-19T11:41:20.979Z,22.07
2017-09-19T11:43:48.390Z,22.50
2017-09-19T11:46:15.785Z,21.70
2017-09-19T11:48:43.173Z,19.07
2017-09-19T11:51:10.576Z,20.50
2017-09-19T11:53:37.966Z,20.60
2017-09-19T11:56:05.513Z,21.23
2017-09-19T11:58:32.905Z,22.47
2017-09-19T12:01:00.303Z,21.00
2017-09-19T12:03:27.702Z,20.10
2017-09-19T12:05:55.090Z,20.60
2017-09-19T12:08:22.790Z,19.60
2017-09-19T12:10:50.177Z,18.17
2017-09-19T12:13:17.565Z,18.43
2017-09-19T12:15:44.961Z,18.30
2017-09-19T12:18:12.358Z,17.80
2017-09-19T12:20:39.914Z,20.43
2017-09-19T12:23:07.298Z,20.20
2017-09-19T12:25:34.689Z,20.50
2017-09-19T12:28:02.091Z,20.63
2017-09-19T12:30:29.482Z,21.33
2017-09-19T12:32:57.186Z,21.53
2017-09-19T12:35:24.582Z,21.47
2017-09-19T12:37:51.974Z,21.30
2017-09-19T12:40:19.375Z,21.77
2017-09-19T12:42:46.775Z,22.10
2017-09-19T12:45:14.446Z,22.50
2017-09-19T12:47:41.840Z,21.83
2017-09-19T12:50:09.253Z,21.23
2017-09-19T12:52:36.657Z,22.80
2017-09-19T12:55:04.061Z,22.43
2017-09-19T12:57:31.459Z,21.77
2017-09-19T12:59:58.854Z,21.80
2017-09-19T13:02:26.259Z,22.30
2017-09-19T13:04:53.659Z,20.00
2017-09-19T13:07:21.067Z,19.47
2017-09-19T13:09:48.472Z,21.70
2017-09-19T13:12:15.866Z,20.50
2017-09-19T13:14:43.273Z,20.63
2017-09-19T13:17:10.674Z,21.30
2017-09-19T13:19:38.545Z,20.60
2017-09-19T13:22:05.955Z,23.27
2017-09-19T13:24:33.351Z,20.87
2017-09-19T13:27:00.763Z,22.27
2017-09-19T13:29:28.158Z,21.90
2017-09-19T13:32:07.387Z,22.90
2017-09-19T13:34:34.823Z,20.40
2017-09-19T13:37:02.227Z,21.97
2017-09-19T13:39:29.623Z,19.80
2017-09-19T13:41:57.043Z,19.93
2017-09-19T13:44:24.439Z,22.30
2017-09-19T13:46:51.839Z,22.20
2017-09-19T13:49:19.249Z,23.03
2017-09-19T13:51:46.643Z,21.17
2017-09-19T13:54:14.046Z,21.90
2017-09-19T13:56:41.443Z,20.70
2017-09-19T13:59:08.852Z,21.17
2017-09-19T14:01:36.251Z,20.60
2017-09-19T14:04:03.803Z,21.80
2017-09-19T14:06:31.203Z,21.90
2017-09-19T14:08:58.594Z,21.93
2017-09-19T14:11:25.994Z,21.70
2017-09-19T14:13:53.392Z,23.33
2017-09-19T14:16:20.811Z,21.30
2017-09-19T14:18:48.206Z,22.20
2017-09-19T14:21:15.603Z,21.97
2017-09-19T14:23:43.011Z,22.37
2017-09-19T14:26:10.408Z,21.40
2017-09-19T14:28:37.910Z,19.90
2017-09-19T14:31:05.308Z,21.53
2017-09-19T14:33:32.701Z,21.87
2017-09-19T14:36:00.098Z,20.27
2017-09-19T14:38:27.498Z,20.73
2017-09-19T14:40:55.085Z,19.80
2017-09-19T14:43:22.482Z,20.50
2017-09-19T14:45:49.923Z,19.90
2017-09-19T14:48:17.326Z,17.60
2017-09-19T14:50:44.726Z,18.50
2017-09-19T14:53:12.135Z,18.47
2017-09-19T14:55:39.526Z,19.13
2017-09-19T14:58:06.939Z,18.10
2017-09-19T15:00:34.326Z,16.60
2017-09-19T15:03:01.729Z,16.80
2017-09-19T15:05:29.151Z,15.63
2017-09-19T15:07:56.542Z,16.10
2017-09-19T15:10:24.800Z,15.60
2017-09-19T15:12:52.203Z,16.10
2017-09-19T15:15:19.603Z,14.90
2017-09-19T15:17:47.031Z,14.37
2017-09-19T15:20:14.436Z,15.03
2017-09-19T15:22:41.832Z,13.90
2017-09-19T15:25:09.235Z,14.63
2017-09-19T15:27:37.640Z,14.60
2017-09-19T15:30:05.042Z,14.27
2017-09-19T15:32:32.443Z,14.77
2017-09-19T15:34:59.986Z,15.10
2017-09-19T15:37:27.531Z,15.57
2017-09-19T15:39:54.935Z,15.17
2017-09-19T15:42:22.327Z,15.67
2017-09-19T15:44:49.727Z,14.20
2017-09-19T15:47:17.147Z,16.77
2017-09-19T15:49:44.535Z,15.23
2017-09-19T15:52:11.926Z,16.43
2017-09-19T15:54:39.358Z,17.90
2017-09-19T15:57:07.083Z,18.70
2017-09-19T15:59:35.500Z,18.83
2017-09-19T16:02:02.886Z,17.47
2017-09-19T16:04:30.300Z,18.53
2017-09-19T16:06:57.939Z,17.63
2017-09-19T16:09:25.334Z,19.13
2017-09-19T16:11:52.730Z,19.77
2017-09-19T16:14:20.140Z,19.27
2017-09-19T16:16:47.559Z,18.60
2017-09-19T16:19:15.591Z,18.23
2017-09-19T16:21:42.982Z,18.50
2017-09-19T16:24:10.755Z,18.77
2017-09-19T16:26:38.149Z,16.13
2017-09-19T16:29:05.561Z,17.30
2017-09-19T16:31:32.958Z,18.90
2017-09-19T16:34:00.358Z,17.83
2017-09-19T16:36:27.920Z,17.50
2017-09-19T16:38:55.326Z,17.37
2017-09-19T16:41:22.815Z,16.93
2017-09-19T16:43:51.234Z,15.07
2017-09-19T16:46:18.631Z,15.83
2017-09-19T16:48:46.828Z,15.27
2017-09-19T16:51:14.223Z,16.00
2017-09-19T16:53:41.636Z,16.60
2017-09-19T16:56:09.417Z,15.30
2017-09-19T16:58:36.798Z,16.97
2017-09-19T17:01:04.202Z,16.27
2017-09-19T17:03:31.623Z,15.57
2017-09-19T17:05:59.025Z,15.60
2017-09-19T17:08:26.467Z,15.90
2017-09-19T17:10:53.867Z,14.40
2017-09-19T17:13:21.435Z,13.63
2017-09-19T17:15:48.826Z,15.60
2017-09-19T17:18:16.463Z,16.67
2017-09-19T17:20:43.846Z,17.53
2017-09-19T17:23:11.241Z,15.70
2017-09-19T17:25:38.815Z,15.23
2017-09-19T17:28:06.210Z,14.13
2017-09-19T17:30:33.607Z,16.33
2017-09-19T17:33:01.015Z,15.73
2017-09-19T17:35:28.415Z,16.57
2017-09-19T17:37:56.019Z,17.37
2017-09-19T17:40:23.413Z,15.17
2017-09-19T17:42:50.806Z,18.97
2017-09-19T17:45:18.208Z,15.30
2017-09-19T17:47:45.625Z,15.27
2017-09-19T17:50:13.346Z,15.60
2017-09-19T17:52:40.747Z,16.30
2017-09-19T17:55:08.855Z,17.20
2017-09-19T17:57:37.179Z,18.10
2017-09-19T18:00:04.619Z,17.40
2017-09-19T18:02:32.271Z,16.23
2017-09-19T18:04:59.715Z,16.63
2017-09-19T18:07:27.227Z,17.00
2017-09-19T18:09:54.688Z,19.07
2017-09-19T18:12:22.083Z,19.50
2017-09-19T18:14:49.490Z,17.47
2017-09-19T18:17:16.891Z,16.80
2017-09-19T18:19:44.318Z,18.20
2017-09-19T18:22:11.766Z,19.33
2017-09-19T18:24:39.159Z,18.67
2017-09-19T18:27:06.830Z,18.50
2017-09-19T18:29:34.272Z,19.20
2017-09-19T18:32:01.684Z,17.83
2017-09-19T18:34:29.092Z,19.27
2017-09-19T18:36:56.615Z,19.60
2017-09-19T18:39:24.138Z,20.73
2017-09-19T18:41:51.556Z,20.60
2017-09-19T18:44:18.951Z,21.00
2017-09-19T18:46:46.367Z,21.73
2017-09-19T18:49:13.789Z,22.67
2017-09-19T18:51:41.376Z,22.70
2017-09-19T18:54:08.779Z,25.00
2017-09-19T18:56:36.171Z,22.53
2017-09-19T18:59:03.586Z,22.00
2017-09-19T19:01:30.982Z,23.37
2017-09-19T19:03:58.550Z,24.33
2017-09-19T19:06:25.955Z,23.13
2017-09-19T19:08:53.355Z,23.00
2017-09-19T19:11:20.767Z,22.13
2017-09-19T19:13:48.162Z,23.40
2017-09-19T19:16:15.727Z,24.20
2017-09-19T19:18:43.126Z,23.37
2017-09-19T19:21:10.522Z,23.40
2017-09-19T19:23:37.929Z,22.93
2017-09-19T19:26:05.326Z,21.30
2017-09-19T19:28:32.883Z,23.27
2017-09-19T19:31:00.272Z,22.60
2017-09-19T19:33:27.667Z,24.17
2017-09-19T19:35:55.074Z,22.57
2017-09-19T19:38:22.468Z,22.33
2017-09-19T19:40:49.903Z,23.27
2017-09-19T19:43:17.300Z,22.90
2017-09-19T19:45:44.704Z,24.53
2017-09-19T19:48:12.110Z,26.73
2017-09-19T19:50:39.506Z,28.43
2017-09-19T19:53:07.060Z,28.20
2017-09-19T19:55:34.454Z,27.00
2017-09-19T19:58:01.852Z,25.43
2017-09-19T20:00:29.252Z,29.90
2017-09-19T20:02:56.646Z,25.83
2017-09-19T20:05:24.050Z,25.50
2017-09-19T20:07:51.452Z,25.10
2017-09-19T20:10:18.847Z,27.67
2017-09-19T20:12:46.250Z,26.43
2017-09-19T20:15:13.651Z,28.97
2017-09-19T20:17:41.128Z,30.80
2017-09-19T20:20:08.528Z,29.57
2017-09-19T20:22:35.924Z,27.87
2017-09-19T20:25:03.323Z,29.30
2017-09-19T20:27:30.730Z,28.00
2017-09-19T20:29:58.478Z,28.23
2017-09-19T20:32:25.867Z,28.80
2017-09-19T20:34:53.279Z,27.67
2017-09-19T20:37:20.683Z,27.80
2017-09-19T20:39:48.071Z,26.63
2017-09-19T20:42:15.474Z,26.60
2017-09-19T20:44:42.871Z,28.37
2017-09-19T20:47:10.267Z,27.23
2017-09-19T20:49:37.672Z,25.43
2017-09-19T20:52:05.074Z,24.60
2017-09-19T20:54:32.471Z,27.40
2017-09-19T20:56:59.879Z,25.27
2017-09-19T20:59:27.275Z,25.20
2017-09-19T21:01:55.180Z,24.40
2017-09-19T21:04:28.085Z,27.37
2017-09-19T21:07:01.035Z,25.50
2017-09-19T21:09:33.912Z,27.60
2017-09-19T21:12:06.912Z,29.17
2017-09-19T21:14:40.007Z,29.20
2017-09-19T21:17:13.311Z,29.20
2017-09-19T21:19:40.139Z,31.23
2017-09-19T21:22:07.547Z,29.53
2017-09-19T21:24:34.958Z,28.47
2017-09-19T21:27:02.351Z,27.73
2017-09-19T21:29:29.746Z,29.73
2017-09-19T21:31:57.304Z,29.80
2017-09-19T21:34:24.700Z,28.20
2017-09-19T21:36:52.091Z,27.40
2017-09-19T21:39:19.494Z,27.00
2017-09-19T21:41:46.900Z,25.87
2017-09-19T21:44:14.328Z,26.67
2017-09-19T21:46:41.727Z,25.40
2017-09-19T21:49:09.122Z,24.93
2017-09-19T21:51:36.525Z,27.60
2017-09-19T21:54:03.918Z,27.10
2017-09-19T21:56:31.340Z,25.60
2017-09-19T21:58:58.741Z,27.07
2017-09-19T22:01:26.132Z,26.80
2017-09-19T22:03:53.568Z,27.27
2017-09-19T22:06:20.964Z,27.40
2017-09-19T22:08:48.385Z,25.70
2017-09-19T22:11:15.778Z,25.83
2017-09-19T22:13:43.170Z,26.93
2017-09-19T22:16:10.570Z,24.20
2017-09-19T22:18:37.991Z,27.33
2017-09-19T22:21:05.400Z,28.23
2017-09-19T22:23:32.799Z,26.70
2017-09-19T22:26:00.196Z,29.13
2017-09-19T22:28:27.610Z,30.03
2017-09-19T22:30:55.016Z,28.07
2017-09-19T22:33:22.446Z,30.50
2017-09-19T22:35:49.838Z,30.10
2017-09-19T22:38:17.255Z,30.27
2017-09-19T22:40:44.665Z,28.43
2017-09-19T22:43:12.335Z,29.23
2017-09-19T22:45:39.886Z,27.90
2017-09-19T22:48:07.288Z,30.00
2017-09-19T22:50:34.694Z,29.87
2017-09-19T22:53:02.102Z,28.23
2017-09-19T22:55:29.501Z,30.80
2017-09-19T22:57:56.915Z,27.47
2017-09-19T23:00:24.328Z,27.77
2017-09-19T23:02:51.731Z,30.20
2017-09-19T23:05:19.143Z,31.00
2017-09-19T23:07:46.538Z,28.90
2017-09-19T23:10:13.963Z,31.03
2017-09-19T23:12:41.364Z,29.97
2017-09-19T23:15:09.076Z,31.27
2017-09-19T23:17:36.482Z,31.47
2017-09-19T23:20:03.878Z,29.93
2017-09-19T23:22:31.435Z,30.87
2017-09-19T23:24:58.834Z,29.37
2017-09-19T23:27:26.231Z,28.93
2017-09-19T23:29:53.658Z,29.80
2017-09-19T23:32:21.039Z,32.07
2017-09-19T23:34:48.707Z,29.30
2017-09-19T23:37:16.139Z,30.90
2017-09-19T23:39:43.527Z,28.23
2017-09-19T23:42:10.930Z,30.37
2017-09-19T23:44:38.327Z,30.30
2017-09-19T23:47:05.760Z,31.03
2017-09-19T23:49:33.155Z,30.67
2017-09-19T23:52:00.563Z,30.27
2017-09-19T23:54:27.966Z,31.67
2017-09-19T23:56:55.359Z,31.73
2017-09-19T23:59:22.779Z,32.00
